Map

Track Data

SID SEASON NUMBER BASIN SUBBASIN NAME ISO_TIME NATURE LAT LON WMO_WIND WMO_PRES WMO_AGENCY TRACK_TYPE DIST2LAND LANDFALL IFLAG USA_AGENCY USA_ATCF_ID USA_LAT USA_LON USA_RECORD USA_STATUS USA_WIND USA_PRES USA_SSHS USA_R34_NE USA_R34_SE USA_R34_SW USA_R34_NW USA_R50_NE USA_R50_SE USA_R50_SW USA_R50_NW USA_R64_NE USA_R64_SE USA_R64_SW USA_R64_NW USA_POCI USA_ROCI USA_RMW USA_EYE TOKYO_LAT TOKYO_LON TOKYO_GRADE TOKYO_WIND TOKYO_PRES TOKYO_R50_DIR TOKYO_R50_LONG TOKYO_R50_SHORT TOKYO_R30_DIR TOKYO_R30_LONG TOKYO_R30_SHORT TOKYO_LAND CMA_LAT CMA_LON CMA_CAT CMA_WIND CMA_PRES HKO_LAT HKO_LON HKO_CAT HKO_WIND HKO_PRES NEWDELHI_LAT NEWDELHI_LON NEWDELHI_GRADE NEWDELHI_WIND NEWDELHI_PRES NEWDELHI_CI NEWDELHI_DP NEWDELHI_POCI REUNION_LAT REUNION_LON REUNION_TYPE REUNION_WIND REUNION_PRES REUNION_TNUM REUNION_CI REUNION_RMW REUNION_R34_NE REUNION_R34_SE REUNION_R34_SW REUNION_R34_NW REUNION_R50_NE REUNION_R50_SE REUNION_R50_SW REUNION_R50_NW REUNION_R64_NE REUNION_R64_SE REUNION_R64_SW REUNION_R64_NW BOM_LAT BOM_LON BOM_TYPE BOM_WIND BOM_PRES BOM_TNUM BOM_CI BOM_RMW BOM_R34_NE BOM_R34_SE BOM_R34_SW BOM_R34_NW BOM_R50_NE BOM_R50_SE BOM_R50_SW BOM_R50_NW BOM_R64_NE BOM_R64_SE BOM_R64_SW BOM_R64_NW BOM_ROCI BOM_POCI BOM_EYE BOM_POS_METHOD BOM_PRES_METHOD NADI_LAT NADI_LON NADI_CAT NADI_WIND NADI_PRES WELLINGTON_LAT WELLINGTON_LON WELLINGTON_WIND WELLINGTON_PRES DS824_LAT DS824_LON DS824_STAGE DS824_WIND DS824_PRES TD9636_LAT TD9636_LON TD9636_STAGE TD9636_WIND TD9636_PRES TD9635_LAT TD9635_LON TD9635_WIND TD9635_PRES TD9635_ROCI NEUMANN_LAT NEUMANN_LON NEUMANN_CLASS NEUMANN_WIND NEUMANN_PRES MLC_LAT MLC_LON MLC_CLASS MLC_WIND MLC_PRES USA_GUST BOM_GUST BOM_GUST_PER REUNION_GUST REUNION_GUST_PER USA_SEAHGT USA_SEARAD_NE USA_SEARAD_SE USA_SEARAD_SW USA_SEARAD_NW STORM_SPEED STORM_DIR
1968256N13339 1968 88 NA NA EDNA 1968-09-11 18:00:00 TS 12.7000 -21.1000 25 hurdat_atl main 448 448 O_____________ hurdat_atl AL081968 12.7000 -21.1000 TD 25 -1 11 284
1968256N13339 1968 88 NA NA EDNA 1968-09-11 21:00:00 TS 12.8376 -21.6675 main 501 496 P_____________ AL081968 12.8376 -21.6675 TD 25 -1 12 284
1968256N13339 1968 88 NA NA EDNA 1968-09-12 00:00:00 TS 13.0000 -22.3000 25 hurdat_atl main 552 552 O_____________ hurdat_atl AL081968 13.0000 -22.3000 TD 25 -1 14 285
1968256N13339 1968 88 NA NA EDNA 1968-09-12 03:00:00 TS 13.2000 -23.0349 main 617 617 P_____________ AL081968 13.2000 -23.0349 TD 25 -1 15 285
1968256N13339 1968 88 NA NA EDNA 1968-09-12 06:00:00 TS 13.4000 -23.8000 25 hurdat_atl main 695 695 O_____________ hurdat_atl AL081968 13.4000 -23.8000 TD 25 -1 15 284
1968256N13339 1968 88 NA NA EDNA 1968-09-12 09:00:00 TS 13.5649 -24.5301 main 765 765 P_____________ AL081968 13.5649 -24.5301 TD 27 -1 14 282
1968256N13339 1968 88 NA NA EDNA 1968-09-12 12:00:00 TS 13.7000 -25.2000 30 hurdat_atl main 837 837 O_____________ hurdat_atl AL081968 13.7000 -25.2000 TD 30 -1 12 282
1968256N13339 1968 88 NA NA EDNA 1968-09-12 15:00:00 TS 13.8148 -25.7876 main 900 900 P_____________ AL081968 13.8148 -25.7876 TD 30 -1 11 281
1968256N13339 1968 88 NA NA EDNA 1968-09-12 18:00:00 TS 13.9000 -26.3000 30 hurdat_atl main 952 952 O_____________ hurdat_atl AL081968 13.9000 -26.3000 TD 30 -1 9 278
1968256N13339 1968 88 NA NA EDNA 1968-09-12 21:00:00 TS 13.9497 -26.7501 main 1006 1005 P_____________ AL081968 13.9497 -26.7501 TD 30 -1 9 277
1968256N13339 1968 88 NA NA EDNA 1968-09-13 00:00:00 TS 14.0000 -27.2000 30 hurdat_atl main 1048 1048 O_____________ hurdat_atl AL081968 14.0000 -27.2000 TD 30 -1 10 279
1968256N13339 1968 88 NA NA EDNA 1968-09-13 03:00:00 TS 14.1001 -27.7499 main 1101 1101 P_____________ AL081968 14.1001 -27.7499 TD 30 -1 11 281
1968256N13339 1968 88 NA NA EDNA 1968-09-13 06:00:00 TS 14.2000 -28.3000 30 hurdat_atl main 1164 1164 O_____________ hurdat_atl AL081968 14.2000 -28.3000 TD 30 -1 10 279
1968256N13339 1968 88 NA NA EDNA 1968-09-13 09:00:00 TS 14.2499 -28.7726 main 1218 1217 P_____________ AL081968 14.2499 -28.7726 TD 30 -1 9 277
1968256N13339 1968 88 NA NA EDNA 1968-09-13 12:00:00 TS 14.3000 -29.2000 30 hurdat_atl main 1260 1260 O_____________ hurdat_atl AL081968 14.3000 -29.2000 TD 30 -1 8 280
1968256N13339 1968 88 NA NA EDNA 1968-09-13 15:00:00 TS 14.3849 -29.6001 main 1303 1303 P_____________ AL081968 14.3849 -29.6001 TD 30 -1 8 284
1968256N13339 1968 88 NA NA EDNA 1968-09-13 18:00:00 TS 14.5000 -30.0000 30 hurdat_atl main 1345 1345 O_____________ hurdat_atl AL081968 14.5000 -30.0000 TD 30 -1 9 288
1968256N13339 1968 88 NA NA EDNA 1968-09-13 21:00:00 TS 14.6500 -30.4425 main 1388 1388 P_____________ AL081968 14.6500 -30.4425 TD 30 -1 9 289
1968256N13339 1968 88 NA NA EDNA 1968-09-14 00:00:00 TS 14.8000 -30.9000 30 hurdat_atl main 1441 1441 O_____________ hurdat_atl AL081968 14.8000 -30.9000 TD 30 -1 9 286
1968256N13339 1968 88 NA NA EDNA 1968-09-14 03:00:00 TS 14.8998 -31.3352 main 1484 1484 P_____________ AL081968 14.8998 -31.3352 TD 30 -1 9 283
1968256N13339 1968 88 NA NA EDNA 1968-09-14 06:00:00 TS 15.0000 -31.8000 30 hurdat_atl main 1537 1537 O_____________ hurdat_atl AL081968 15.0000 -31.8000 TD 30 -1 10 284
1968256N13339 1968 88 NA NA EDNA 1968-09-14 09:00:00 TS 15.1425 -32.3350 main 1591 1591 P_____________ AL081968 15.1425 -32.3350 TD 30 -1 11 286
1968256N13339 1968 88 NA NA EDNA 1968-09-14 12:00:00 TS 15.3000 -32.9000 30 hurdat_atl main 1655 1655 O_____________ hurdat_atl AL081968 15.3000 -32.9000 TD 30 -1 11 286
1968256N13339 1968 88 NA NA EDNA 1968-09-14 15:00:00 TS 15.4575 -33.4650 main 1720 1720 P_____________ AL081968 15.4575 -33.4650 TD 30 -1 11 286
1968256N13339 1968 88 NA NA EDNA 1968-09-14 18:00:00 TS 15.6000 -34.0000 30 hurdat_atl main 1774 1774 O_____________ hurdat_atl AL081968 15.6000 -34.0000 TD 30 -1 10 285
1968256N13339 1968 88 NA NA EDNA 1968-09-14 21:00:00 TS 15.7073 -34.4651 main 1827 1827 P_____________ AL081968 15.7073 -34.4651 TD 40 0 9 283
1968256N13339 1968 88 NA NA EDNA 1968-09-15 00:00:00 TS 15.8000 -34.9000 50 1005 hurdat_atl main 1870 1870 O_____________ hurdat_atl AL081968 15.8000 -34.9000 TS 50 1005 0 9 283
1968256N13339 1968 88 NA NA EDNA 1968-09-15 03:00:00 TS 15.8999 -35.3500 main 1924 1924 P_____________ AL081968 15.8999 -35.3500 TS 52 0 9 283
1968256N13339 1968 88 NA NA EDNA 1968-09-15 06:00:00 TS 16.0000 -35.8000 55 hurdat_atl main 1967 1967 O_____________ hurdat_atl AL081968 16.0000 -35.8000 TS 55 0 9 283
1968256N13339 1968 88 NA NA EDNA 1968-09-15 09:00:00 TS 16.0999 -36.2426 main 2010 2010 P_____________ AL081968 16.0999 -36.2426 TS 55 0 9 283
1968256N13339 1968 88 NA NA EDNA 1968-09-15 12:00:00 TS 16.2000 -36.7000 55 hurdat_atl main 2064 2044 O_____________ hurdat_atl AL081968 16.2000 -36.7000 TS 55 0 9 283
1968256N13339 1968 88 NA NA EDNA 1968-09-15 15:00:00 TS 16.3150 -37.1999 main 2044 2010 P_____________ AL081968 16.3150 -37.1999 TS 55 0 10 282
1968256N13339 1968 88 NA NA EDNA 1968-09-15 18:00:00 TS 16.4000 -37.7000 55 hurdat_atl main 2010 1978 O_____________ hurdat_atl AL081968 16.4000 -37.7000 TS 55 0 9 276
1968256N13339 1968 88 NA NA EDNA 1968-09-15 21:00:00 TS 16.4074 -38.1577 main 1970 1939 P_____________ AL081968 16.4074 -38.1577 TS 55 0 9 270
1968256N13339 1968 88 NA NA EDNA 1968-09-16 00:00:00 TS 16.4000 -38.6000 55 hurdat_atl main 1939 1908 O_____________ hurdat_atl AL081968 16.4000 -38.6000 TS 55 0 8 273
1968256N13339 1968 88 NA NA EDNA 1968-09-16 03:00:00 TS 16.4497 -39.0274 main 1908 1878 P_____________ AL081968 16.4497 -39.0274 TS 55 0 9 277
1968256N13339 1968 88 NA NA EDNA 1968-09-16 06:00:00 TS 16.5000 -39.5000 55 hurdat_atl main 1878 1833 O_____________ hurdat_atl AL081968 16.5000 -39.5000 TS 55 0 10 273
1968256N13339 1968 88 NA NA EDNA 1968-09-16 09:00:00 TS 16.5001 -40.0926 main 1833 1790 P_____________ AL081968 16.5001 -40.0926 TS 55 0 12 270
1968256N13339 1968 88 NA NA EDNA 1968-09-16 12:00:00 TS 16.5000 -40.7000 55 hurdat_atl main 1790 1756 O_____________ hurdat_atl AL081968 16.5000 -40.7000 TS 55 0 11 272
1968256N13339 1968 88 NA NA EDNA 1968-09-16 15:00:00 TS 16.5422 -41.2075 main 1756 1731 P_____________ AL081968 16.5422 -41.2075 TS 55 0 10 276
1968256N13339 1968 88 NA NA EDNA 1968-09-16 18:00:00 TS 16.6000 -41.7000 55 hurdat_atl main 1731 1698 O_____________ hurdat_atl AL081968 16.6000 -41.7000 TS 55 0 10 276
1968256N13339 1968 88 NA NA EDNA 1968-09-16 21:00:00 TS 16.6499 -42.2425 main 1698 1670 P_____________ AL081968 16.6499 -42.2425 TS 55 0 11 275
1968256N13339 1968 88 NA NA EDNA 1968-09-17 00:00:00 TS 16.7000 -42.8000 55 hurdat_atl main 1670 1639 O_____________ hurdat_atl AL081968 16.7000 -42.8000 TS 55 0 11 275
1968256N13339 1968 88 NA NA EDNA 1968-09-17 03:00:00 TS 16.7499 -43.3500 main 1632 1608 P_____________ AL081968 16.7499 -43.3500 TS 55 0 11 275
1968256N13339 1968 88 NA NA EDNA 1968-09-17 06:00:00 TS 16.8000 -43.9000 55 hurdat_atl main 1608 1576 O_____________ hurdat_atl AL081968 16.8000 -43.9000 TS 55 0 11 275
1968256N13339 1968 88 NA NA EDNA 1968-09-17 09:00:00 TS 16.8498 -44.4425 main 1576 1550 P_____________ AL081968 16.8498 -44.4425 TS 52 0 11 275
1968256N13339 1968 88 NA NA EDNA 1968-09-17 12:00:00 TS 16.9000 -45.0000 50 hurdat_atl main 1550 1521 O_____________ hurdat_atl AL081968 16.9000 -45.0000 TS 50 0 11 275
1968256N13339 1968 88 NA NA EDNA 1968-09-17 15:00:00 TS 16.9497 -45.5701 main 1516 1494 P_____________ AL081968 16.9497 -45.5701 TS 45 0 12 275
1968256N13339 1968 88 NA NA EDNA 1968-09-17 18:00:00 TS 17.0000 -46.2000 40 hurdat_atl main 1494 1459 O_____________ hurdat_atl AL081968 17.0000 -46.2000 TS 40 0 13 274
1968256N13339 1968 88 NA NA EDNA 1968-09-17 21:00:00 TS 17.0500 -46.9275 main 1459 1433 P_____________ AL081968 17.0500 -46.9275 TS 40 0 14 274
1968256N13339 1968 88 NA NA EDNA 1968-09-18 00:00:00 TS 17.1000 -47.7000 40 hurdat_atl main 1433 1404 O_____________ hurdat_atl AL081968 17.1000 -47.7000 TS 40 0 14 274
1968256N13339 1968 88 NA NA EDNA 1968-09-18 03:00:00 TS 17.1494 -48.4201 main 1404 1377 P_____________ AL081968 17.1494 -48.4201 TS 37 0 14 274
1968256N13339 1968 88 NA NA EDNA 1968-09-18 06:00:00 TS 17.2000 -49.2000 35 hurdat_atl main 1377 1341 O_____________ hurdat_atl AL081968 17.2000 -49.2000 TS 35 0 16 274
1968256N13339 1968 88 NA NA EDNA 1968-09-18 09:00:00 TS 17.2502 -50.1425 main 1352 1307 P_____________ AL081968 17.2502 -50.1425 TS 32 -1 18 273
1968256N13339 1968 88 NA NA EDNA 1968-09-18 12:00:00 TS 17.3000 -51.1000 30 1013 hurdat_atl main 1298 1228 O_____________ hurdat_atl AL081968 17.3000 -51.1000 TD 30 1013 -1 17 273
1968256N13339 1968 88 NA NA EDNA 1968-09-18 15:00:00 TS 17.3419 -51.9226 main 1228 1167 P_____________ AL081968 17.3419 -51.9226 TD 27 -1 15 274
1968256N13339 1968 88 NA NA EDNA 1968-09-18 18:00:00 TS 17.4000 -52.7000 25 hurdat_atl main 1167 1110 O_____________ hurdat_atl AL081968 17.4000 -52.7000 TD 25 -1 15 276
1968256N13339 1968 88 NA NA EDNA 1968-09-18 21:00:00 TS 17.4923 -53.5075 main 1110 1057 P_____________ AL081968 17.4923 -53.5075 TD 25 -1 15 277
1968256N13339 1968 88 NA NA EDNA 1968-09-19 00:00:00 TS 17.6000 -54.3000 25 hurdat_atl main 1057 1015 O_____________ hurdat_atl AL081968 17.6000 -54.3000 TD 25 -1 15 278
1968256N13339 1968 88 NA NA EDNA 1968-09-19 03:00:00 TS 17.7030 -55.0599 main 1009 972 P_____________ AL081968 17.7030 -55.0599 TD 25 -1 14 278
1968256N13339 1968 88 NA NA EDNA 1968-09-19 06:00:00 TS 17.8000 -55.8000 25 hurdat_atl main 972 O_____________ hurdat_atl AL081968 17.8000 -55.8000 TD 25 -1 14 278

About IBTrACS Database

This database is a web-friendly format of International Best Track Archive for Climate Stewardship (IBTrACS), a global best track data archive curated by NOAA dating back to 1842.

Updated: 2021-10-08